createdAt,value
2022-09-26T00:00:00.272Z,44.8
2022-09-26T00:01:00.426Z,44.7
2022-09-26T00:02:00.388Z,45.8
2022-09-26T00:03:00.302Z,45.5
2022-09-26T00:04:00.299Z,45.2
2022-09-26T00:05:00.293Z,45.6
2022-09-26T00:06:00.308Z,44.8
2022-09-26T00:07:00.539Z,44.8
2022-09-26T00:08:00.276Z,44.8
2022-09-26T00:09:00.276Z,45.1
2022-09-26T00:10:00.302Z,44.9
2022-09-26T00:11:00.272Z,45.5
2022-09-26T00:12:00.303Z,45.7
2022-09-26T00:13:00.529Z,45.7
2022-09-26T00:14:00.428Z,44.8
2022-09-26T00:15:00.305Z,45.1
2022-09-26T00:16:00.308Z,44.7
2022-09-26T00:17:00.402Z,44.0
2022-09-26T00:18:00.310Z,45.4
2022-09-26T00:19:00.419Z,44.7
2022-09-26T00:20:00.292Z,44.6
2022-09-26T00:21:00.302Z,45.4
2022-09-26T00:22:00.320Z,45.8
2022-09-26T00:23:00.279Z,46.6
2022-09-26T00:24:00.291Z,45.8
2022-09-26T00:25:00.494Z,44.6
2022-09-26T00:26:00.313Z,45.6
2022-09-26T00:27:00.380Z,47.3
2022-09-26T00:28:00.313Z,45.8
2022-09-26T00:29:00.592Z,44.8
2022-09-26T00:30:00.307Z,45.8
2022-09-26T00:31:00.618Z,45.5
2022-09-26T00:32:00.306Z,45.7
2022-09-26T00:33:00.298Z,45.6
2022-09-26T00:34:00.296Z,45.4
2022-09-26T00:35:00.303Z,45.6
2022-09-26T00:36:00.290Z,46.1
2022-09-26T00:37:00.530Z,45.9
2022-09-26T00:38:00.291Z,46.0
2022-09-26T00:39:00.315Z,46.0
2022-09-26T00:40:00.295Z,46.2
2022-09-26T00:41:00.372Z,46.1
2022-09-26T00:42:00.309Z,46.3
2022-09-26T00:43:00.419Z,45.6
2022-09-26T00:44:00.383Z,46.9
2022-09-26T00:45:00.294Z,46.0
2022-09-26T00:46:00.369Z,45.9
2022-09-26T00:47:00.303Z,45.6
2022-09-26T00:48:00.293Z,46.5
2022-09-26T00:49:00.455Z,46.1
2022-09-26T00:50:00.319Z,46.7
2022-09-26T00:51:00.300Z,46.5
2022-09-26T00:52:00.302Z,45.8
2022-09-26T00:53:00.312Z,46.7
2022-09-26T00:54:00.357Z,45.8
2022-09-26T00:55:00.503Z,45.9
2022-09-26T00:56:00.379Z,45.4
2022-09-26T00:57:00.285Z,45.7
2022-09-26T00:58:00.290Z,46.7
2022-09-26T00:59:00.551Z,45.9
2022-09-26T01:00:00.309Z,45.0
2022-09-26T01:01:00.738Z,45.2
2022-09-26T01:02:00.549Z,44.5
2022-09-26T01:03:00.315Z,44.3
2022-09-26T01:04:00.293Z,44.0
2022-09-26T01:05:00.300Z,44.5
2022-09-26T01:06:00.313Z,44.6
2022-09-26T01:07:00.428Z,44.5
2022-09-26T01:08:00.312Z,44.5
2022-09-26T01:09:00.302Z,43.9
2022-09-26T01:10:00.303Z,44.3
2022-09-26T01:11:00.296Z,44.8
2022-09-26T01:12:00.302Z,45.4
2022-09-26T01:13:00.432Z,44.8
2022-09-26T01:14:00.421Z,46.8
2022-09-26T01:15:00.288Z,44.3
2022-09-26T01:16:00.295Z,43.7
2022-09-26T01:17:00.388Z,43.3
2022-09-26T01:18:00.297Z,43.0
2022-09-26T01:19:00.447Z,43.2
2022-09-26T01:20:00.330Z,44.0
2022-09-26T01:21:00.284Z,43.3
2022-09-26T01:22:00.278Z,43.3
2022-09-26T01:23:00.311Z,43.9
2022-09-26T01:24:00.350Z,43.3
2022-09-26T01:25:00.554Z,43.9
2022-09-26T01:26:00.295Z,43.3
2022-09-26T01:27:00.325Z,43.2
2022-09-26T01:28:00.297Z,43.3
2022-09-26T01:29:00.457Z,42.8
2022-09-26T01:30:00.306Z,43.5
2022-09-26T01:31:00.555Z,43.4
2022-09-26T01:32:00.304Z,43.2
2022-09-26T01:33:00.297Z,42.8
2022-09-26T01:34:00.334Z,44.2
2022-09-26T01:35:00.291Z,43.7
2022-09-26T01:36:00.356Z,43.7
2022-09-26T01:37:00.485Z,43.8
2022-09-26T01:38:00.304Z,44.9
2022-09-26T01:39:00.295Z,45.0
2022-09-26T01:40:00.295Z,44.4
2022-09-26T01:41:00.400Z,44.1
2022-09-26T01:42:00.334Z,45.0
2022-09-26T01:43:00.456Z,44.2
2022-09-26T01:44:00.309Z,44.5
2022-09-26T01:45:00.351Z,44.1
2022-09-26T01:46:00.337Z,44.1
2022-09-26T01:47:00.313Z,44.7
2022-09-26T01:48:00.286Z,44.7
2022-09-26T01:49:00.440Z,44.4
2022-09-26T01:50:00.329Z,45.3
2022-09-26T01:51:00.300Z,44.8
2022-09-26T01:52:00.299Z,44.6
2022-09-26T01:53:00.385Z,44.6
2022-09-26T01:54:00.299Z,44.3
2022-09-26T01:55:00.422Z,45.0
2022-09-26T01:56:00.314Z,45.1
2022-09-26T01:57:00.296Z,44.1
2022-09-26T01:58:00.307Z,45.2
2022-09-26T01:59:00.278Z,45.6
2022-09-26T02:00:00.447Z,45.2
2022-09-26T02:01:00.553Z,45.3
2022-09-26T02:02:00.352Z,44.9
2022-09-26T02:03:00.315Z,44.3
2022-09-26T02:04:00.332Z,45.0
2022-09-26T02:05:00.305Z,44.7
2022-09-26T02:06:00.296Z,44.2
2022-09-26T02:07:00.419Z,44.7
2022-09-26T02:08:00.312Z,44.9
2022-09-26T02:09:00.286Z,45.1
2022-09-26T02:10:00.317Z,44.9
2022-09-26T02:11:00.292Z,46.5
2022-09-26T02:12:00.281Z,45.4
2022-09-26T02:13:00.431Z,45.0
2022-09-26T02:14:00.299Z,45.1
2022-09-26T02:15:00.482Z,44.8
2022-09-26T02:16:00.291Z,44.9
2022-09-26T02:17:00.348Z,44.7
2022-09-26T02:18:00.305Z,44.7
2022-09-26T02:19:00.414Z,45.0
2022-09-26T02:20:00.310Z,45.3
2022-09-26T02:21:00.291Z,44.9
2022-09-26T02:22:00.310Z,44.7
2022-09-26T02:23:00.302Z,45.2
2022-09-26T02:24:00.334Z,45.1
2022-09-26T02:25:00.774Z,44.6
2022-09-26T02:26:00.306Z,44.5
2022-09-26T02:27:00.292Z,45.1
2022-09-26T02:28:00.295Z,45.2
2022-09-26T02:29:00.824Z,45.2
2022-09-26T02:30:00.340Z,45.2
2022-09-26T02:31:00.538Z,45.2
2022-09-26T02:32:00.346Z,44.6
2022-09-26T02:33:00.292Z,45.1
2022-09-26T02:34:00.297Z,45.2
2022-09-26T02:35:00.310Z,45.0
2022-09-26T02:36:00.281Z,44.9
2022-09-26T02:37:00.648Z,44.5
2022-09-26T02:38:00.296Z,44.6
2022-09-26T02:39:00.304Z,45.4
2022-09-26T02:40:00.296Z,45.5
2022-09-26T02:41:00.407Z,45.2
2022-09-26T02:42:00.318Z,45.4
2022-09-26T02:43:00.467Z,45.8
2022-09-26T02:44:00.350Z,45.6
2022-09-26T02:45:00.349Z,45.3
2022-09-26T02:46:00.340Z,45.1
2022-09-26T02:47:00.294Z,45.1
2022-09-26T02:48:00.291Z,45.2
2022-09-26T02:49:00.560Z,45.7
2022-09-26T02:50:00.313Z,45.6
2022-09-26T02:51:00.320Z,45.4
2022-09-26T02:52:00.354Z,44.8
2022-09-26T02:53:00.386Z,44.6
2022-09-26T02:54:00.313Z,44.8
2022-09-26T02:55:00.442Z,44.6
2022-09-26T02:56:00.387Z,45.2
2022-09-26T02:57:00.473Z,44.8
2022-09-26T02:58:00.360Z,45.0
2022-09-26T02:59:00.338Z,44.8
2022-09-26T03:00:00.442Z,44.6
2022-09-26T03:01:00.500Z,44.8
2022-09-26T03:02:00.311Z,45.0
2022-09-26T03:03:00.347Z,45.5
2022-09-26T03:04:00.289Z,45.5
2022-09-26T03:05:00.427Z,44.9
2022-09-26T03:06:00.295Z,45.1
2022-09-26T03:07:00.463Z,45.1
2022-09-26T03:08:00.303Z,45.3
2022-09-26T03:09:00.292Z,45.2
2022-09-26T03:10:00.312Z,45.2
2022-09-26T03:11:00.307Z,45.4
2022-09-26T03:12:00.308Z,45.5
2022-09-26T03:13:00.440Z,45.4
2022-09-26T03:14:00.295Z,44.9
2022-09-26T03:15:00.313Z,45.1
2022-09-26T03:16:00.539Z,44.3
2022-09-26T03:17:00.300Z,45.1
2022-09-26T03:18:00.308Z,44.8
2022-09-26T03:19:00.456Z,44.9
2022-09-26T03:20:00.285Z,45.4
2022-09-26T03:21:00.304Z,44.8
2022-09-26T03:22:00.312Z,44.0
2022-09-26T03:23:00.305Z,44.0
2022-09-26T03:24:00.286Z,43.7
2022-09-26T03:25:00.512Z,43.3
2022-09-26T03:26:00.312Z,43.3
2022-09-26T03:27:00.397Z,43.2
2022-09-26T03:28:00.305Z,42.7
2022-09-26T03:29:00.373Z,42.3
2022-09-26T03:30:00.297Z,42.2
2022-09-26T03:31:00.566Z,42.3
2022-09-26T03:32:00.388Z,42.1
2022-09-26T03:33:00.313Z,42.4
2022-09-26T03:34:00.314Z,42.9
2022-09-26T03:35:00.280Z,42.9
2022-09-26T03:36:00.310Z,42.7
2022-09-26T03:37:00.459Z,42.9
2022-09-26T03:38:00.293Z,42.3
2022-09-26T03:39:00.288Z,42.7
2022-09-26T03:40:00.311Z,42.1
2022-09-26T03:41:00.354Z,42.3
2022-09-26T03:42:00.288Z,43.2
2022-09-26T03:43:00.442Z,42.7
2022-09-26T03:44:00.301Z,42.7
2022-09-26T03:45:00.314Z,42.5
2022-09-26T03:46:00.431Z,42.5
2022-09-26T03:47:00.311Z,42.2
2022-09-26T03:48:00.327Z,41.6
2022-09-26T03:49:00.478Z,41.6
2022-09-26T03:50:00.366Z,41.8
2022-09-26T03:51:00.387Z,41.4
2022-09-26T03:52:00.271Z,41.8
2022-09-26T03:53:00.337Z,41.8
2022-09-26T03:54:00.296Z,41.3
2022-09-26T03:55:00.398Z,41.7
2022-09-26T03:56:00.282Z,41.9
2022-09-26T03:57:00.325Z,42.0
2022-09-26T03:58:00.300Z,42.1
2022-09-26T03:59:00.310Z,41.9
2022-09-26T04:00:00.295Z,41.7
2022-09-26T04:01:00.576Z,42.2
2022-09-26T04:02:00.448Z,42.0
2022-09-26T04:03:00.295Z,41.5
2022-09-26T04:04:00.315Z,40.4
2022-09-26T04:05:00.287Z,40.2
2022-09-26T04:06:00.307Z,40.3
2022-09-26T04:07:00.618Z,39.4
2022-09-26T04:08:00.299Z,39.5
2022-09-26T04:09:00.278Z,39.7
2022-09-26T04:10:00.315Z,39.2
2022-09-26T04:11:00.323Z,39.3
2022-09-26T04:12:00.312Z,38.9
2022-09-26T04:13:00.408Z,38.7
2022-09-26T04:14:00.276Z,38.8
2022-09-26T04:15:00.308Z,39.2
2022-09-26T04:16:00.555Z,39.1
2022-09-26T04:17:00.293Z,38.9
2022-09-26T04:18:00.372Z,38.6
2022-09-26T04:19:00.489Z,38.8
2022-09-26T04:20:00.295Z,38.7
2022-09-26T04:21:00.322Z,38.7
2022-09-26T04:22:00.299Z,38.4
2022-09-26T04:23:00.288Z,37.9
2022-09-26T04:24:00.338Z,39.0
2022-09-26T04:25:00.546Z,38.7
2022-09-26T04:26:00.295Z,38.3
2022-09-26T04:27:00.317Z,37.7
2022-09-26T04:28:00.302Z,37.6
2022-09-26T04:29:00.278Z,37.4
2022-09-26T04:30:00.313Z,37.1
2022-09-26T04:31:00.531Z,36.8
2022-09-26T04:32:00.421Z,36.7
2022-09-26T04:33:00.303Z,37.2
2022-09-26T04:34:00.302Z,37.5
2022-09-26T04:35:00.325Z,37.4
2022-09-26T04:36:00.301Z,37.5
2022-09-26T04:37:00.506Z,37.1
2022-09-26T04:38:00.291Z,36.7
2022-09-26T04:39:00.331Z,36.6
2022-09-26T04:40:00.312Z,36.7
2022-09-26T04:41:00.341Z,37.1
2022-09-26T04:42:00.377Z,37.7
2022-09-26T04:44:00.430Z,35.6
2022-09-26T04:45:00.348Z,36.1
2022-09-26T04:46:00.532Z,36.0
2022-09-26T04:47:00.270Z,35.5
2022-09-26T04:48:00.317Z,35.2
2022-09-26T04:49:00.303Z,35.7
2022-09-26T04:50:00.437Z,35.3
2022-09-26T04:51:00.309Z,35.1
2022-09-26T04:52:00.328Z,34.8
2022-09-26T04:53:00.284Z,35.8
2022-09-26T04:54:00.321Z,35.5
2022-09-26T04:55:00.323Z,35.5
2022-09-26T04:56:00.677Z,35.7
2022-09-26T04:57:00.317Z,36.1
2022-09-26T04:58:00.289Z,35.8
2022-09-26T04:59:00.315Z,36.0
2022-09-26T05:00:00.298Z,35.5
2022-09-26T05:01:00.476Z,30.0
2022-09-26T05:02:00.510Z,25.4
2022-09-26T05:03:00.302Z,26.3
2022-09-26T05:04:00.382Z,29.0
2022-09-26T05:05:00.293Z,30.8
2022-09-26T05:06:00.290Z,31.7
2022-09-26T05:07:00.324Z,30.2
2022-09-26T05:08:00.477Z,26.0
2022-09-26T05:09:00.278Z,20.5
2022-09-26T05:10:00.312Z,18.4
2022-09-26T05:11:00.294Z,16.9
2022-09-26T05:12:00.299Z,14.8
2022-09-26T05:13:00.314Z,14.2
2022-09-26T05:14:00.510Z,13.3
2022-09-26T05:15:00.305Z,13.0
2022-09-26T05:16:00.371Z,10.9
2022-09-26T05:17:00.550Z,11.5
2022-09-26T05:18:00.338Z,10.5
2022-09-26T05:19:00.310Z,10.4
2022-09-26T05:20:00.547Z,9.3
2022-09-26T05:21:00.334Z,8.3
2022-09-26T05:22:00.360Z,8.4
2022-09-26T05:23:00.320Z,8.3
2022-09-26T05:24:00.281Z,7.3
2022-09-26T05:25:00.302Z,6.9
2022-09-26T05:26:00.449Z,6.7
2022-09-26T05:27:00.301Z,6.1
2022-09-26T05:28:00.318Z,6.4
2022-09-26T05:29:07.064Z,5.8
2022-09-26T05:30:00.304Z,6.0
2022-09-26T05:31:00.314Z,6.4
2022-09-26T05:32:00.494Z,6.6
2022-09-26T05:33:00.319Z,5.9
2022-09-26T05:34:00.302Z,5.9
2022-09-26T05:35:00.295Z,6.5
2022-09-26T05:36:00.309Z,6.0
2022-09-26T05:37:00.289Z,5.4
2022-09-26T05:38:00.445Z,5.9
2022-09-26T05:39:00.307Z,5.9
2022-09-26T05:40:00.283Z,5.9
2022-09-26T05:41:00.311Z,6.3
2022-09-26T05:42:00.306Z,6.2
2022-09-26T05:43:00.289Z,6.2
2022-09-26T05:44:00.424Z,6.0
2022-09-26T05:45:00.321Z,6.1
2022-09-26T05:46:00.297Z,6.8
2022-09-26T05:47:00.557Z,6.6
2022-09-26T05:48:00.291Z,6.1
2022-09-26T05:49:00.311Z,6.2
2022-09-26T05:50:00.431Z,6.5
2022-09-26T05:51:00.285Z,6.1
2022-09-26T05:52:00.351Z,6.0
2022-09-26T05:53:00.292Z,5.1
2022-09-26T05:54:00.280Z,5.3
2022-09-26T05:55:00.328Z,5.8
2022-09-26T05:56:00.525Z,6.1
2022-09-26T05:57:00.349Z,5.7
2022-09-26T05:58:00.301Z,5.4
2022-09-26T05:59:00.293Z,5.0
2022-09-26T06:00:00.296Z,4.7
2022-09-26T06:01:00.334Z,4.5
2022-09-26T06:02:00.562Z,4.3
2022-09-26T06:03:00.559Z,4.0
2022-09-26T06:04:00.296Z,3.9
2022-09-26T06:05:00.319Z,3.7
2022-09-26T06:06:00.272Z,3.9
2022-09-26T06:07:00.335Z,3.4
2022-09-26T06:08:00.426Z,3.3
2022-09-26T06:09:00.300Z,3.4
2022-09-26T06:10:00.308Z,3.1
2022-09-26T06:11:00.324Z,3.1
2022-09-26T06:12:00.293Z,2.9
2022-09-26T06:13:00.316Z,2.9
2022-09-26T06:14:00.916Z,2.4
2022-09-26T06:15:00.322Z,2.4
2022-09-26T06:16:00.695Z,2.4
2022-09-26T06:17:00.496Z,2.0
2022-09-26T06:18:00.556Z,2.2
2022-09-26T06:19:00.544Z,1.9
2022-09-26T06:20:00.367Z,2.0
2022-09-26T06:21:00.292Z,2.2
2022-09-26T06:22:00.359Z,2.1
2022-09-26T06:23:00.285Z,1.4
2022-09-26T06:24:00.286Z,1.4
2022-09-26T06:25:00.311Z,1.3
2022-09-26T06:26:00.434Z,1.5
2022-09-26T06:27:00.288Z,1.4
2022-09-26T06:28:00.535Z,1.3
2022-09-26T06:29:00.597Z,1.3
2022-09-26T06:30:00.323Z,1.2
2022-09-26T06:31:00.334Z,1.1
2022-09-26T06:32:00.622Z,0.6
2022-09-26T06:33:00.328Z,0.9
2022-09-26T06:34:00.412Z,1.2
2022-09-26T06:35:00.310Z,1.2
2022-09-26T06:36:00.278Z,1.1
2022-09-26T06:37:00.295Z,0.7
2022-09-26T06:38:00.410Z,0.8
2022-09-26T06:39:00.275Z,0.6
2022-09-26T06:40:00.318Z,0.6
2022-09-26T06:41:00.455Z,0.8
2022-09-26T06:42:00.366Z,0.8
2022-09-26T06:43:00.302Z,0.6
2022-09-26T06:44:00.416Z,0.8
2022-09-26T06:45:00.321Z,0.6
2022-09-26T06:46:00.288Z,0.5
2022-09-26T06:47:00.470Z,0.8
2022-09-26T06:48:00.296Z,0.8
2022-09-26T06:49:00.525Z,0.5
2022-09-26T06:50:00.405Z,1.0
2022-09-26T06:51:00.425Z,0.5
2022-09-26T06:52:00.296Z,0.6
2022-09-26T06:53:06.867Z,0.7
2022-09-26T06:54:00.301Z,0.6
2022-09-26T06:55:00.292Z,0.4
2022-09-26T06:56:00.467Z,0.5
2022-09-26T06:57:00.320Z,0.5
2022-09-26T06:58:00.295Z,0.1
2022-09-26T06:59:00.287Z,0.2
2022-09-26T07:00:00.327Z,0.5
2022-09-26T07:01:00.527Z,0.6
2022-09-26T07:02:00.636Z,0.6
2022-09-26T07:03:00.297Z,0.4
2022-09-26T07:04:00.435Z,0.4
2022-09-26T07:05:00.353Z,0.4
2022-09-26T07:06:00.285Z,0.0
2022-09-26T07:07:00.319Z,0.1
2022-09-26T07:08:00.523Z,0.3
2022-09-26T07:09:03.877Z,0.5
2022-09-26T07:10:00.297Z,0.3
2022-09-26T07:11:21.228Z,0.2
2022-09-26T07:12:14.942Z,0.1
2022-09-26T07:13:00.296Z,0.1
2022-09-26T07:14:00.457Z,0.0
2022-09-26T07:15:00.304Z,0.0
2022-09-26T07:16:00.378Z,0.1
2022-09-26T07:17:00.301Z,0.0
2022-09-26T07:18:00.323Z,0.3
2022-09-26T07:19:00.295Z,0.1
2022-09-26T07:20:00.477Z,0.2
2022-09-26T07:21:00.308Z,-0.2
2022-09-26T07:22:00.319Z,-0.2
2022-09-26T07:23:00.517Z,-0.3
2022-09-26T07:24:00.309Z,-0.3
2022-09-26T07:25:00.280Z,-0.0
2022-09-26T07:26:00.557Z,-0.1
2022-09-26T07:27:00.807Z,-0.2
2022-09-26T07:28:00.290Z,-0.1
2022-09-26T07:29:00.342Z,-0.6
2022-09-26T07:30:00.298Z,-0.3
2022-09-26T07:31:00.383Z,-0.3
2022-09-26T07:32:00.461Z,-0.2
2022-09-26T07:33:00.317Z,-0.3
2022-09-26T07:34:00.298Z,-0.1
2022-09-26T07:35:00.453Z,-0.1
2022-09-26T07:36:04.564Z,-0.2
2022-09-26T07:37:00.293Z,-0.2
2022-09-26T07:38:00.599Z,-0.5
2022-09-26T07:39:00.320Z,-0.0
2022-09-26T07:40:01.841Z,0.5
2022-09-26T07:41:00.494Z,0.9
2022-09-26T07:42:00.369Z,0.9
2022-09-26T07:43:18.692Z,0.7
2022-09-26T07:45:27.755Z,0.6
2022-09-26T07:46:00.448Z,0.7
2022-09-26T07:47:00.428Z,0.7
2022-09-26T07:48:00.429Z,0.5
2022-09-26T07:49:00.416Z,0.6
2022-09-26T07:50:00.661Z,0.8
2022-09-26T07:51:00.358Z,0.8
2022-09-26T07:52:00.567Z,0.7
2022-09-26T07:53:00.289Z,0.7
2022-09-26T07:54:00.297Z,0.5
2022-09-26T07:55:00.293Z,0.5
2022-09-26T07:56:00.415Z,0.3
2022-09-26T07:57:00.304Z,0.4
2022-09-26T07:58:00.281Z,0.4
2022-09-26T07:59:00.306Z,0.6
2022-09-26T08:00:00.310Z,0.7
2022-09-26T08:01:00.312Z,0.8
2022-09-26T08:02:00.506Z,0.8
2022-09-26T08:03:00.333Z,1.0
2022-09-26T08:04:00.304Z,1.0
2022-09-26T08:05:01.327Z,1.0
2022-09-26T08:06:00.412Z,0.7
2022-09-26T08:07:00.307Z,0.5
2022-09-26T08:08:00.524Z,0.5
2022-09-26T08:09:00.491Z,0.6
2022-09-26T08:10:00.316Z,0.4
2022-09-26T08:11:03.923Z,0.3
2022-09-26T08:12:00.299Z,0.3
2022-09-26T08:13:00.369Z,0.3
2022-09-26T08:14:00.485Z,0.3
2022-09-26T08:15:00.355Z,0.4
2022-09-26T08:16:00.390Z,0.5
2022-09-26T08:17:00.297Z,0.5
2022-09-26T08:18:00.307Z,0.4
2022-09-26T08:19:00.320Z,0.2
2022-09-26T08:20:00.457Z,0.1
2022-09-26T08:21:00.302Z,-0.1
2022-09-26T08:22:00.325Z,-0.0
2022-09-26T08:23:00.288Z,-0.0
2022-09-26T08:24:00.301Z,-0.1
2022-09-26T08:25:00.343Z,0.2
2022-09-26T08:26:00.477Z,0.3
2022-09-26T08:27:00.344Z,0.5
2022-09-26T08:28:00.308Z,0.9
2022-09-26T08:29:00.368Z,0.9
2022-09-26T08:30:00.332Z,0.8
2022-09-26T08:31:00.382Z,0.8
2022-09-26T08:32:00.452Z,0.7
2022-09-26T08:33:00.308Z,0.5
2022-09-26T08:34:00.365Z,0.6
2022-09-26T08:35:00.533Z,0.5
2022-09-26T08:36:00.427Z,0.6
2022-09-26T08:37:00.304Z,0.9
2022-09-26T08:38:00.439Z,1.0
2022-09-26T08:39:00.302Z,0.8
2022-09-26T08:40:00.287Z,1.0
2022-09-26T08:41:00.442Z,1.0
2022-09-26T08:42:00.310Z,0.9
2022-09-26T08:43:00.327Z,0.9
2022-09-26T08:44:00.435Z,0.6
2022-09-26T08:45:00.359Z,0.3
2022-09-26T08:46:00.322Z,0.5
2022-09-26T08:47:00.417Z,0.4
2022-09-26T08:48:00.307Z,0.2
2022-09-26T08:49:00.295Z,0.2
2022-09-26T08:50:00.505Z,0.9
2022-09-26T08:51:00.424Z,1.0
2022-09-26T08:52:00.382Z,1.1
2022-09-26T08:53:00.305Z,1.1
2022-09-26T08:54:00.314Z,1.0
2022-09-26T08:55:00.297Z,1.1
2022-09-26T08:56:00.425Z,0.5
2022-09-26T08:57:00.304Z,1.0
2022-09-26T08:58:00.307Z,0.6
2022-09-26T08:59:00.308Z,0.9
2022-09-26T09:00:00.307Z,0.5
2022-09-26T09:01:00.287Z,0.3
2022-09-26T09:02:00.635Z,1.1
2022-09-26T09:03:00.339Z,0.9
2022-09-26T09:04:00.291Z,0.9
2022-09-26T09:05:00.291Z,1.0
2022-09-26T09:06:00.280Z,0.8
2022-09-26T09:07:00.477Z,0.9
2022-09-26T09:08:00.539Z,1.4
2022-09-26T09:09:00.371Z,1.3
2022-09-26T09:10:00.314Z,1.5
2022-09-26T09:11:00.341Z,1.6
2022-09-26T09:12:00.402Z,1.5
2022-09-26T09:13:00.309Z,1.2
2022-09-26T09:14:00.499Z,1.4
2022-09-26T09:15:23.651Z,1.2
2022-09-26T09:16:00.351Z,1.3
2022-09-26T09:17:00.297Z,1.6
2022-09-26T09:18:00.303Z,1.6
2022-09-26T09:19:00.315Z,1.4
2022-09-26T09:20:00.624Z,1.4
2022-09-26T09:21:00.293Z,1.6
2022-09-26T09:22:00.382Z,1.6
2022-09-26T09:23:00.522Z,1.7
2022-09-26T09:24:00.325Z,1.9
2022-09-26T09:25:00.295Z,1.6
2022-09-26T09:28:05.505Z,1.2
2022-09-26T09:29:00.294Z,1.4
2022-09-26T09:30:00.294Z,1.6
2022-09-26T09:31:00.492Z,1.5
2022-09-26T09:32:00.460Z,1.4
2022-09-26T09:33:00.304Z,1.5
2022-09-26T09:34:00.332Z,1.4
2022-09-26T09:35:00.318Z,1.9
2022-09-26T09:36:00.324Z,2.1
2022-09-26T09:37:00.312Z,1.8
2022-09-26T09:38:00.563Z,1.8
2022-09-26T09:39:00.321Z,1.5
2022-09-26T09:40:00.357Z,1.9
2022-09-26T09:41:00.698Z,1.8
2022-09-26T09:42:00.309Z,1.9
2022-09-26T09:43:00.349Z,1.9
2022-09-26T09:44:00.551Z,2.3
2022-09-26T09:45:00.324Z,2.1
2022-09-26T09:46:00.303Z,2.2
2022-09-26T09:47:00.464Z,2.4
2022-09-26T09:48:00.352Z,2.1
2022-09-26T09:49:00.297Z,2.5
2022-09-26T09:50:00.501Z,2.8
2022-09-26T09:51:00.311Z,2.2
2022-09-26T09:52:00.316Z,2.4
2022-09-26T09:53:00.307Z,2.1
2022-09-26T09:54:00.635Z,2.7
2022-09-26T09:55:00.417Z,2.6
2022-09-26T09:56:00.960Z,3.2
2022-09-26T09:57:00.299Z,2.8
2022-09-26T09:58:00.531Z,3.2
2022-09-26T09:59:00.329Z,3.3
2022-09-26T10:00:02.143Z,3.6
2022-09-26T10:01:00.294Z,3.3
2022-09-26T10:02:00.627Z,3.5
2022-09-26T10:03:00.372Z,3.4
2022-09-26T10:04:00.366Z,3.1
2022-09-26T10:05:00.393Z,2.9
2022-09-26T10:06:00.319Z,3.1
2022-09-26T10:07:00.453Z,3.7
2022-09-26T10:08:00.740Z,3.2
2022-09-26T10:09:00.561Z,3.3
2022-09-26T10:10:00.331Z,3.8
2022-09-26T10:11:00.345Z,3.5
2022-09-26T10:12:00.300Z,3.5
2022-09-26T10:13:00.398Z,3.9
2022-09-26T10:14:00.607Z,3.8
2022-09-26T10:15:00.512Z,4.3
2022-09-26T10:16:00.337Z,4.6
2022-09-26T10:17:00.312Z,4.7
2022-09-26T10:18:22.950Z,4.7
2022-09-26T10:19:03.315Z,4.6
2022-09-26T10:20:00.457Z,4.7
2022-09-26T10:21:00.303Z,4.6
2022-09-26T10:22:00.319Z,4.7
2022-09-26T10:23:00.325Z,5.1
2022-09-26T10:24:00.488Z,5.5
2022-09-26T10:25:00.331Z,5.9
2022-09-26T10:26:00.475Z,6.1
2022-09-26T10:27:00.408Z,6.4
2022-09-26T10:28:00.304Z,6.6
2022-09-26T10:29:00.318Z,6.6
2022-09-26T10:30:00.416Z,6.9
2022-09-26T10:31:00.380Z,7.0
2022-09-26T10:32:00.554Z,7.5
2022-09-26T10:33:00.319Z,7.8
2022-09-26T10:34:00.365Z,8.0
2022-09-26T10:35:00.294Z,8.0
2022-09-26T10:36:00.324Z,8.3
2022-09-26T10:37:00.327Z,8.7
2022-09-26T10:38:00.582Z,9.2
2022-09-26T10:39:00.548Z,10.2
2022-09-26T10:40:00.641Z,11.1
2022-09-26T10:41:00.508Z,10.6
2022-09-26T10:42:00.295Z,11.3
2022-09-26T10:43:00.406Z,11.1
2022-09-26T10:44:00.466Z,11.6
2022-09-26T10:45:00.417Z,12.6
2022-09-26T10:46:00.492Z,13.1
2022-09-26T10:47:00.423Z,13.5
2022-09-26T10:48:00.297Z,13.6
2022-09-26T10:49:00.416Z,13.5
2022-09-26T10:50:00.807Z,13.4
2022-09-26T10:51:00.325Z,13.8
2022-09-26T10:52:01.495Z,13.4
2022-09-26T10:53:00.339Z,13.3
2022-09-26T10:54:00.312Z,12.9
2022-09-26T10:55:00.529Z,13.1
2022-09-26T10:56:00.437Z,13.6
2022-09-26T10:57:00.293Z,14.0
2022-09-26T10:58:00.333Z,14.1
2022-09-26T10:59:00.425Z,14.2
2022-09-26T11:00:00.314Z,14.3
2022-09-26T11:01:00.382Z,14.2
2022-09-26T11:02:00.505Z,14.1
2022-09-26T11:03:00.284Z,14.2
2022-09-26T11:04:00.397Z,14.2
2022-09-26T11:05:00.432Z,14.3
2022-09-26T11:06:00.392Z,14.5
2022-09-26T11:07:00.368Z,15.5
2022-09-26T11:08:00.781Z,15.7
2022-09-26T11:09:00.337Z,15.6
2022-09-26T11:10:00.563Z,14.7
2022-09-26T11:11:00.373Z,15.5
2022-09-26T11:12:00.357Z,15.9
2022-09-26T11:13:00.348Z,16.2
2022-09-26T11:14:00.518Z,15.9
2022-09-26T11:15:00.386Z,16.2
2022-09-26T11:16:00.386Z,16.8
2022-09-26T11:17:00.327Z,16.4
2022-09-26T11:18:00.365Z,15.4
2022-09-26T11:19:00.335Z,16.2
2022-09-26T11:20:00.442Z,16.7
2022-09-26T11:21:00.334Z,16.8
2022-09-26T11:22:03.229Z,16.1
2022-09-26T11:23:00.312Z,17.5
2022-09-26T11:24:00.349Z,17.6
2022-09-26T11:25:00.575Z,17.9
2022-09-26T11:26:00.473Z,17.4
2022-09-26T11:27:00.393Z,17.0
2022-09-26T11:28:00.311Z,16.2
2022-09-26T11:29:00.310Z,16.4
2022-09-26T11:30:00.388Z,16.3
2022-09-26T11:31:00.440Z,16.4
2022-09-26T11:32:00.620Z,16.7
2022-09-26T11:33:00.282Z,16.9
2022-09-26T11:34:00.293Z,17.9
2022-09-26T11:35:00.289Z,17.7
2022-09-26T11:36:00.283Z,17.2
2022-09-26T11:37:00.290Z,17.4
2022-09-26T11:38:00.438Z,17.6
2022-09-26T11:39:00.322Z,17.4
2022-09-26T11:40:00.373Z,17.3
2022-09-26T11:41:00.506Z,17.5
2022-09-26T11:42:00.284Z,16.8
2022-09-26T11:43:00.306Z,17.1
2022-09-26T11:44:00.406Z,17.4
2022-09-26T11:45:00.321Z,17.9
2022-09-26T11:46:00.375Z,18.5
2022-09-26T11:47:00.352Z,18.0
2022-09-26T11:48:00.375Z,18.7
2022-09-26T11:49:00.295Z,18.6
2022-09-26T11:50:00.540Z,17.1
2022-09-26T11:51:00.279Z,17.2
2022-09-26T11:52:00.275Z,17.2
2022-09-26T11:53:00.343Z,18.1
2022-09-26T11:54:00.306Z,18.6
2022-09-26T11:55:00.308Z,17.5
2022-09-26T11:56:00.474Z,17.8
2022-09-26T11:57:00.304Z,17.6
2022-09-26T11:58:03.429Z,18.1
2022-09-26T11:59:00.311Z,18.1
2022-09-26T12:00:00.329Z,18.6
2022-09-26T12:01:00.309Z,18.4
2022-09-26T12:02:00.512Z,17.9
2022-09-26T12:03:00.427Z,18.2
2022-09-26T12:04:00.504Z,18.0
2022-09-26T12:05:00.325Z,18.5
2022-09-26T12:06:00.347Z,18.6
2022-09-26T12:07:00.299Z,18.9
2022-09-26T12:08:00.556Z,19.3
2022-09-26T12:09:00.369Z,18.7
2022-09-26T12:10:00.299Z,18.5
2022-09-26T12:11:00.288Z,18.8
2022-09-26T12:12:00.516Z,18.7
2022-09-26T12:13:00.301Z,17.4
2022-09-26T12:14:00.569Z,17.6
2022-09-26T12:15:00.383Z,18.8
2022-09-26T12:16:00.376Z,18.0
2022-09-26T12:17:00.320Z,18.1
2022-09-26T12:18:00.297Z,17.6
2022-09-26T12:19:00.305Z,17.8
2022-09-26T12:20:00.456Z,18.3
2022-09-26T12:21:00.318Z,18.7
2022-09-26T12:22:00.292Z,19.3
2022-09-26T12:23:00.415Z,18.2
2022-09-26T12:24:00.331Z,18.4
2022-09-26T12:25:00.325Z,19.0
2022-09-26T12:26:00.559Z,18.5
2022-09-26T12:27:00.478Z,18.9
2022-09-26T12:28:00.316Z,18.4
2022-09-26T12:29:00.362Z,18.7
2022-09-26T12:30:00.280Z,19.1
2022-09-26T12:31:00.411Z,19.4
2022-09-26T12:32:00.456Z,19.4
2022-09-26T12:33:00.469Z,19.1
2022-09-26T12:34:00.309Z,19.1
2022-09-26T12:35:00.327Z,18.8
2022-09-26T12:36:00.333Z,18.8
2022-09-26T12:37:00.349Z,18.5
2022-09-26T12:38:00.533Z,18.7
2022-09-26T12:39:00.321Z,18.4
2022-09-26T12:40:00.297Z,18.6
2022-09-26T12:41:00.409Z,18.2
2022-09-26T12:42:00.346Z,18.6
2022-09-26T12:43:00.472Z,18.8
2022-09-26T12:44:00.588Z,19.0
2022-09-26T12:45:00.309Z,19.1
2022-09-26T12:46:00.360Z,19.1
2022-09-26T12:47:00.374Z,18.9
2022-09-26T12:48:00.324Z,18.7
2022-09-26T12:49:00.438Z,18.9
2022-09-26T12:50:00.566Z,19.0
2022-09-26T12:51:00.320Z,19.0
2022-09-26T12:52:00.346Z,19.5
2022-09-26T12:53:00.436Z,19.0
2022-09-26T12:54:00.313Z,18.9
2022-09-26T12:55:00.305Z,19.0
2022-09-26T12:56:00.592Z,19.1
2022-09-26T12:57:00.360Z,18.6
2022-09-26T12:58:00.506Z,18.7
2022-09-26T12:59:00.332Z,18.6
2022-09-26T13:00:00.351Z,18.6
2022-09-26T13:01:00.332Z,18.9
2022-09-26T13:02:00.472Z,18.5
2022-09-26T13:03:00.468Z,18.4
2022-09-26T13:04:00.281Z,18.6
2022-09-26T13:05:00.502Z,18.9
2022-09-26T13:06:01.986Z,19.5
2022-09-26T13:07:18.210Z,18.9
2022-09-26T13:08:00.448Z,19.0
2022-09-26T13:09:00.322Z,19.2
2022-09-26T13:10:00.334Z,18.6
2022-09-26T13:11:00.283Z,18.7
2022-09-26T13:12:00.303Z,18.5
2022-09-26T13:13:00.483Z,18.8
2022-09-26T13:14:00.385Z,18.7
2022-09-26T13:15:00.283Z,18.7
2022-09-26T13:16:00.393Z,18.6
2022-09-26T13:17:00.295Z,18.5
2022-09-26T13:18:00.332Z,18.6
2022-09-26T13:19:00.314Z,19.0
2022-09-26T13:20:00.727Z,19.1
2022-09-26T13:21:00.278Z,19.3
2022-09-26T13:22:00.356Z,19.9
2022-09-26T13:23:00.452Z,18.6
2022-09-26T13:24:00.317Z,18.6
2022-09-26T13:25:00.291Z,19.0
2022-09-26T13:26:00.443Z,19.2
2022-09-26T13:27:00.296Z,18.8
2022-09-26T13:28:00.432Z,18.5
2022-09-26T13:29:16.292Z,18.6
2022-09-26T13:30:00.265Z,18.6
2022-09-26T13:31:00.445Z,18.8
2022-09-26T13:32:00.444Z,18.8